sensor_id;sensor_type;location;lat;lon;timestamp;P1;durP1;ratioP1;P2;durP2;ratioP2
75526;SDS011;64107;49.248;7.006;2022-12-29T00:00:08;2.88;;;1.50;;
75526;SDS011;64107;49.248;7.006;2022-12-29T00:02:36;1.67;;;1.00;;
75526;SDS011;64107;49.248;7.006;2022-12-29T00:05:02;4.68;;;2.88;;
75526;SDS011;64107;49.248;7.006;2022-12-29T00:07:28;2.50;;;1.70;;
75526;SDS011;64107;49.248;7.006;2022-12-29T00:09:54;2.97;;;1.38;;
75526;SDS011;64107;49.248;7.006;2022-12-29T00:12:20;3.03;;;2.58;;
75526;SDS011;64107;49.248;7.006;2022-12-29T00:14:46;4.10;;;2.03;;
75526;SDS011;64107;49.248;7.006;2022-12-29T00:17:31;3.15;;;2.10;;
75526;SDS011;64107;49.248;7.006;2022-12-29T00:19:57;3.50;;;2.03;;
75526;SDS011;64107;49.248;7.006;2022-12-29T00:22:42;5.32;;;2.40;;
75526;SDS011;64107;49.248;7.006;2022-12-29T00:25:26;3.80;;;1.83;;
75526;SDS011;64107;49.248;7.006;2022-12-29T00:28:11;3.80;;;1.38;;
75526;SDS011;64107;49.248;7.006;2022-12-29T00:31:01;3.85;;;2.55;;
75526;SDS011;64107;49.248;7.006;2022-12-29T00:33:47;2.60;;;2.30;;
75526;SDS011;64107;49.248;7.006;2022-12-29T00:36:36;1.35;;;1.25;;
75526;SDS011;64107;49.248;7.006;2022-12-29T00:39:06;5.05;;;2.22;;
75526;SDS011;64107;49.248;7.006;2022-12-29T00:42:04;2.13;;;1.13;;
75526;SDS011;64107;49.248;7.006;2022-12-29T00:45:03;2.25;;;1.55;;
75526;SDS011;64107;49.248;7.006;2022-12-29T00:47:29;1.58;;;1.30;;
75526;SDS011;64107;49.248;7.006;2022-12-29T00:49:56;1.70;;;1.50;;
75526;SDS011;64107;49.248;7.006;2022-12-29T00:52:22;4.35;;;1.75;;
75526;SDS011;64107;49.248;7.006;2022-12-29T00:54:48;1.95;;;1.50;;
75526;SDS011;64107;49.248;7.006;2022-12-29T00:57:14;1.83;;;1.73;;
75526;SDS011;64107;49.248;7.006;2022-12-29T00:59:40;3.15;;;2.03;;
75526;SDS011;64107;49.248;7.006;2022-12-29T01:02:07;2.20;;;1.50;;
75526;SDS011;64107;49.248;7.006;2022-12-29T01:04:34;3.10;;;1.80;;
75526;SDS011;64107;49.248;7.006;2022-12-29T01:07:00;2.80;;;1.20;;
75526;SDS011;64107;49.248;7.006;2022-12-29T01:09:26;1.90;;;1.20;;
75526;SDS011;64107;49.248;7.006;2022-12-29T01:12:11;2.33;;;1.50;;
75526;SDS011;64107;49.248;7.006;2022-12-29T01:14:37;1.98;;;1.52;;
75526;SDS011;64107;49.248;7.006;2022-12-29T01:17:04;2.58;;;1.63;;
75526;SDS011;64107;49.248;7.006;2022-12-29T01:19:30;2.33;;;1.60;;
75526;SDS011;64107;49.248;7.006;2022-12-29T01:21:56;1.20;;;0.80;;
75526;SDS011;64107;49.248;7.006;2022-12-29T01:24:22;2.58;;;1.40;;
75526;SDS011;64107;49.248;7.006;2022-12-29T01:26:50;0.98;;;0.88;;
75526;SDS011;64107;49.248;7.006;2022-12-29T01:29:17;3.15;;;1.60;;
75526;SDS011;64107;49.248;7.006;2022-12-29T01:31:43;4.03;;;1.83;;
75526;SDS011;64107;49.248;7.006;2022-12-29T01:34:09;1.95;;;1.70;;
75526;SDS011;64107;49.248;7.006;2022-12-29T01:36:35;2.00;;;1.30;;
75526;SDS011;64107;49.248;7.006;2022-12-29T01:39:01;5.60;;;2.30;;
75526;SDS011;64107;49.248;7.006;2022-12-29T01:41:28;3.47;;;2.03;;
75526;SDS011;64107;49.248;7.006;2022-12-29T01:43:55;1.42;;;1.33;;
75526;SDS011;64107;49.248;7.006;2022-12-29T01:46:33;4.20;;;1.80;;
75526;SDS011;64107;49.248;7.006;2022-12-29T01:51:35;4.68;;;2.58;;
75526;SDS011;64107;49.248;7.006;2022-12-29T01:54:22;2.25;;;1.25;;
75526;SDS011;64107;49.248;7.006;2022-12-29T01:56:52;4.88;;;1.25;;
75526;SDS011;64107;49.248;7.006;2022-12-29T01:59:20;3.25;;;1.95;;
75526;SDS011;64107;49.248;7.006;2022-12-29T02:01:50;1.95;;;1.40;;
75526;SDS011;64107;49.248;7.006;2022-12-29T02:04:16;2.00;;;1.30;;
75526;SDS011;64107;49.248;7.006;2022-12-29T02:06:55;2.38;;;1.83;;
75526;SDS011;64107;49.248;7.006;2022-12-29T02:09:26;3.70;;;2.00;;
75526;SDS011;64107;49.248;7.006;2022-12-29T02:11:53;3.38;;;2.17;;
75526;SDS011;64107;49.248;7.006;2022-12-29T02:14:19;3.90;;;2.08;;
75526;SDS011;64107;49.248;7.006;2022-12-29T02:19:54;5.00;;;2.42;;
75526;SDS011;64107;49.248;7.006;2022-12-29T02:30:48;2.15;;;1.38;;
75526;SDS011;64107;49.248;7.006;2022-12-29T02:35:47;2.97;;;2.00;;
75526;SDS011;64107;49.248;7.006;2022-12-29T02:38:21;2.40;;;1.27;;
75526;SDS011;64107;49.248;7.006;2022-12-29T02:41:23;2.80;;;2.00;;
75526;SDS011;64107;49.248;7.006;2022-12-29T02:44:03;3.75;;;1.65;;
75526;SDS011;64107;49.248;7.006;2022-12-29T02:46:38;3.85;;;1.95;;
75526;SDS011;64107;49.248;7.006;2022-12-29T02:49:25;4.30;;;2.33;;
75526;SDS011;64107;49.248;7.006;2022-12-29T02:52:31;3.05;;;2.03;;
75526;SDS011;64107;49.248;7.006;2022-12-29T02:54:53;2.40;;;1.65;;
75526;SDS011;64107;49.248;7.006;2022-12-29T03:00:33;1.75;;;1.20;;
75526;SDS011;64107;49.248;7.006;2022-12-29T03:02:45;2.60;;;1.60;;
75526;SDS011;64107;49.248;7.006;2022-12-29T03:08:18;3.05;;;1.48;;
75526;SDS011;64107;49.248;7.006;2022-12-29T03:18:58;2.03;;;1.52;;
75526;SDS011;64107;49.248;7.006;2022-12-29T03:21:39;3.80;;;1.65;;
75526;SDS011;64107;49.248;7.006;2022-12-29T03:24:31;2.50;;;1.90;;
75526;SDS011;64107;49.248;7.006;2022-12-29T03:27:00;2.65;;;1.92;;
75526;SDS011;64107;49.248;7.006;2022-12-29T03:29:29;2.97;;;1.52;;
75526;SDS011;64107;49.248;7.006;2022-12-29T03:31:58;2.40;;;2.05;;
75526;SDS011;64107;49.248;7.006;2022-12-29T03:34:25;2.88;;;1.90;;
75526;SDS011;64107;49.248;7.006;2022-12-29T03:36:53;3.40;;;1.60;;
75526;SDS011;64107;49.248;7.006;2022-12-29T03:39:25;2.25;;;1.42;;
75526;SDS011;64107;49.248;7.006;2022-12-29T03:41:55;1.55;;;1.45;;
75526;SDS011;64107;49.248;7.006;2022-12-29T03:44:32;2.28;;;1.67;;
75526;SDS011;64107;49.248;7.006;2022-12-29T03:46:59;2.65;;;1.85;;
75526;SDS011;64107;49.248;7.006;2022-12-29T03:49:25;2.45;;;1.77;;
75526;SDS011;64107;49.248;7.006;2022-12-29T03:51:51;4.22;;;1.98;;
75526;SDS011;64107;49.248;7.006;2022-12-29T03:54:18;3.47;;;1.65;;
75526;SDS011;64107;49.248;7.006;2022-12-29T03:56:44;2.15;;;1.55;;
75526;SDS011;64107;49.248;7.006;2022-12-29T03:59:10;4.07;;;1.90;;
75526;SDS011;64107;49.248;7.006;2022-12-29T04:01:36;3.42;;;1.80;;
75526;SDS011;64107;49.248;7.006;2022-12-29T04:04:02;4.80;;;1.90;;
75526;SDS011;64107;49.248;7.006;2022-12-29T04:06:28;3.45;;;1.92;;
75526;SDS011;64107;49.248;7.006;2022-12-29T04:08:54;3.15;;;1.38;;
75526;SDS011;64107;49.248;7.006;2022-12-29T04:11:20;3.45;;;1.67;;
75526;SDS011;64107;49.248;7.006;2022-12-29T04:13:48;2.03;;;1.48;;
75526;SDS011;64107;49.248;7.006;2022-12-29T04:16:14;3.13;;;1.85;;
75526;SDS011;64107;49.248;7.006;2022-12-29T04:18:40;3.28;;;1.40;;
75526;SDS011;64107;49.248;7.006;2022-12-29T04:21:06;3.95;;;2.03;;
75526;SDS011;64107;49.248;7.006;2022-12-29T04:23:34;3.17;;;1.80;;
75526;SDS011;64107;49.248;7.006;2022-12-29T04:26:01;4.28;;;1.65;;
75526;SDS011;64107;49.248;7.006;2022-12-29T04:28:28;4.85;;;1.00;;
75526;SDS011;64107;49.248;7.006;2022-12-29T04:30:54;3.55;;;1.80;;
75526;SDS011;64107;49.248;7.006;2022-12-29T04:33:20;2.03;;;1.63;;
75526;SDS011;64107;49.248;7.006;2022-12-29T04:35:47;2.90;;;2.00;;
75526;SDS011;64107;49.248;7.006;2022-12-29T04:38:13;2.92;;;2.20;;
75526;SDS011;64107;49.248;7.006;2022-12-29T04:40:40;1.73;;;1.10;;
75526;SDS011;64107;49.248;7.006;2022-12-29T04:43:08;1.67;;;1.38;;
75526;SDS011;64107;49.248;7.006;2022-12-29T04:45:34;3.70;;;1.75;;
75526;SDS011;64107;49.248;7.006;2022-12-29T04:48:01;2.05;;;1.60;;
75526;SDS011;64107;49.248;7.006;2022-12-29T04:50:27;4.18;;;2.10;;
75526;SDS011;64107;49.248;7.006;2022-12-29T04:52:53;4.07;;;1.85;;
75526;SDS011;64107;49.248;7.006;2022-12-29T04:55:19;1.98;;;1.35;;
75526;SDS011;64107;49.248;7.006;2022-12-29T04:57:45;4.60;;;1.83;;
75526;SDS011;64107;49.248;7.006;2022-12-29T05:00:12;3.22;;;2.00;;
75526;SDS011;64107;49.248;7.006;2022-12-29T05:02:38;2.10;;;1.23;;
75526;SDS011;64107;49.248;7.006;2022-12-29T05:05:04;1.75;;;1.15;;
75526;SDS011;64107;49.248;7.006;2022-12-29T05:07:31;2.67;;;1.42;;
75526;SDS011;64107;49.248;7.006;2022-12-29T05:09:58;2.95;;;1.48;;
75526;SDS011;64107;49.248;7.006;2022-12-29T05:12:24;2.70;;;1.95;;
75526;SDS011;64107;49.248;7.006;2022-12-29T05:14:50;4.18;;;2.20;;
75526;SDS011;64107;49.248;7.006;2022-12-29T05:17:16;3.08;;;2.25;;
75526;SDS011;64107;49.248;7.006;2022-12-29T05:19:42;2.65;;;1.40;;
75526;SDS011;64107;49.248;7.006;2022-12-29T05:22:08;3.63;;;2.00;;
75526;SDS011;64107;49.248;7.006;2022-12-29T05:24:34;2.00;;;1.65;;
75526;SDS011;64107;49.248;7.006;2022-12-29T05:27:00;3.13;;;1.63;;
75526;SDS011;64107;49.248;7.006;2022-12-29T05:29:27;3.58;;;1.98;;
75526;SDS011;64107;49.248;7.006;2022-12-29T05:31:53;1.10;;;1.00;;
75526;SDS011;64107;49.248;7.006;2022-12-29T05:34:19;3.53;;;1.65;;
75526;SDS011;64107;49.248;7.006;2022-12-29T05:36:45;4.78;;;2.30;;
75526;SDS011;64107;49.248;7.006;2022-12-29T05:39:11;3.95;;;2.08;;
75526;SDS011;64107;49.248;7.006;2022-12-29T05:41:37;2.75;;;1.70;;
75526;SDS011;64107;49.248;7.006;2022-12-29T05:44:03;3.22;;;2.05;;
75526;SDS011;64107;49.248;7.006;2022-12-29T05:46:29;2.13;;;1.38;;
75526;SDS011;64107;49.248;7.006;2022-12-29T05:48:55;5.30;;;2.58;;
75526;SDS011;64107;49.248;7.006;2022-12-29T05:51:22;2.10;;;1.42;;
75526;SDS011;64107;49.248;7.006;2022-12-29T05:53:48;5.07;;;2.28;;
75526;SDS011;64107;49.248;7.006;2022-12-29T05:56:14;3.30;;;2.08;;
75526;SDS011;64107;49.248;7.006;2022-12-29T05:58:40;4.60;;;2.20;;
75526;SDS011;64107;49.248;7.006;2022-12-29T06:01:06;3.15;;;2.30;;
75526;SDS011;64107;49.248;7.006;2022-12-29T06:03:32;2.60;;;1.88;;
75526;SDS011;64107;49.248;7.006;2022-12-29T06:05:58;2.75;;;2.25;;
75526;SDS011;64107;49.248;7.006;2022-12-29T06:08:25;3.10;;;1.95;;
75526;SDS011;64107;49.248;7.006;2022-12-29T06:10:51;3.83;;;2.25;;
75526;SDS011;64107;49.248;7.006;2022-12-29T06:13:17;4.25;;;1.98;;
75526;SDS011;64107;49.248;7.006;2022-12-29T06:15:43;3.85;;;2.25;;
75526;SDS011;64107;49.248;7.006;2022-12-29T06:18:10;2.33;;;1.65;;
75526;SDS011;64107;49.248;7.006;2022-12-29T06:20:36;5.40;;;2.22;;
75526;SDS011;64107;49.248;7.006;2022-12-29T06:23:02;4.70;;;2.30;;
75526;SDS011;64107;49.248;7.006;2022-12-29T06:25:28;4.18;;;2.63;;
75526;SDS011;64107;49.248;7.006;2022-12-29T06:27:57;4.22;;;2.30;;
75526;SDS011;64107;49.248;7.006;2022-12-29T06:30:23;3.45;;;2.35;;
75526;SDS011;64107;49.248;7.006;2022-12-29T06:32:49;3.83;;;2.30;;
75526;SDS011;64107;49.248;7.006;2022-12-29T06:35:16;4.57;;;2.90;;
75526;SDS011;64107;49.248;7.006;2022-12-29T06:37:42;1.77;;;1.52;;
75526;SDS011;64107;49.248;7.006;2022-12-29T06:40:09;3.00;;;2.05;;
75526;SDS011;64107;49.248;7.006;2022-12-29T06:42:36;3.92;;;2.70;;
75526;SDS011;64107;49.248;7.006;2022-12-29T06:45:02;3.15;;;1.58;;
75526;SDS011;64107;49.248;7.006;2022-12-29T06:47:29;3.40;;;2.00;;
75526;SDS011;64107;49.248;7.006;2022-12-29T06:49:55;5.88;;;3.00;;
75526;SDS011;64107;49.248;7.006;2022-12-29T06:52:21;3.60;;;2.70;;
75526;SDS011;64107;49.248;7.006;2022-12-29T06:54:49;3.60;;;2.10;;
75526;SDS011;64107;49.248;7.006;2022-12-29T06:57:15;4.15;;;2.58;;
75526;SDS011;64107;49.248;7.006;2022-12-29T06:59:41;3.40;;;2.13;;
75526;SDS011;64107;49.248;7.006;2022-12-29T07:02:08;3.53;;;2.88;;
75526;SDS011;64107;49.248;7.006;2022-12-29T07:04:35;5.32;;;2.80;;
75526;SDS011;64107;49.248;7.006;2022-12-29T07:07:01;4.50;;;3.40;;
75526;SDS011;64107;49.248;7.006;2022-12-29T07:09:27;3.28;;;1.92;;
75526;SDS011;64107;49.248;7.006;2022-12-29T07:11:53;5.80;;;3.25;;
75526;SDS011;64107;49.248;7.006;2022-12-29T07:14:19;2.55;;;2.33;;
75526;SDS011;64107;49.248;7.006;2022-12-29T07:16:45;2.25;;;1.77;;
75526;SDS011;64107;49.248;7.006;2022-12-29T07:19:11;5.97;;;3.05;;
75526;SDS011;64107;49.248;7.006;2022-12-29T07:21:37;4.47;;;2.60;;
75526;SDS011;64107;49.248;7.006;2022-12-29T07:24:03;5.70;;;2.78;;
75526;SDS011;64107;49.248;7.006;2022-12-29T07:26:30;3.67;;;2.38;;
75526;SDS011;64107;49.248;7.006;2022-12-29T07:28:56;4.38;;;3.25;;
75526;SDS011;64107;49.248;7.006;2022-12-29T07:31:23;2.25;;;1.80;;
75526;SDS011;64107;49.248;7.006;2022-12-29T07:33:49;3.67;;;3.03;;
75526;SDS011;64107;49.248;7.006;2022-12-29T07:36:16;2.88;;;2.00;;
75526;SDS011;64107;49.248;7.006;2022-12-29T07:38:42;5.57;;;3.72;;
75526;SDS011;64107;49.248;7.006;2022-12-29T07:41:08;4.95;;;2.83;;
75526;SDS011;64107;49.248;7.006;2022-12-29T07:43:35;4.03;;;2.40;;
75526;SDS011;64107;49.248;7.006;2022-12-29T07:46:01;5.55;;;3.53;;
75526;SDS011;64107;49.248;7.006;2022-12-29T07:48:27;3.50;;;2.97;;
75526;SDS011;64107;49.248;7.006;2022-12-29T07:50:53;5.30;;;2.75;;
75526;SDS011;64107;49.248;7.006;2022-12-29T07:53:19;6.10;;;3.05;;
75526;SDS011;64107;49.248;7.006;2022-12-29T07:55:45;3.97;;;2.17;;
75526;SDS011;64107;49.248;7.006;2022-12-29T07:58:11;4.60;;;2.55;;
75526;SDS011;64107;49.248;7.006;2022-12-29T08:00:38;4.70;;;2.92;;
75526;SDS011;64107;49.248;7.006;2022-12-29T08:03:04;4.65;;;3.25;;
75526;SDS011;64107;49.248;7.006;2022-12-29T08:05:31;5.28;;;3.25;;
75526;SDS011;64107;49.248;7.006;2022-12-29T08:07:57;4.43;;;1.80;;
75526;SDS011;64107;49.248;7.006;2022-12-29T08:10:24;6.30;;;3.00;;
75526;SDS011;64107;49.248;7.006;2022-12-29T08:12:50;5.97;;;3.38;;
75526;SDS011;64107;49.248;7.006;2022-12-29T08:15:16;4.38;;;2.40;;
75526;SDS011;64107;49.248;7.006;2022-12-29T08:17:42;4.63;;;3.25;;
75526;SDS011;64107;49.248;7.006;2022-12-29T08:20:08;6.75;;;3.42;;
75526;SDS011;64107;49.248;7.006;2022-12-29T08:22:34;4.60;;;2.80;;
75526;SDS011;64107;49.248;7.006;2022-12-29T08:25:01;4.95;;;3.42;;
75526;SDS011;64107;49.248;7.006;2022-12-29T08:27:27;4.38;;;2.80;;
75526;SDS011;64107;49.248;7.006;2022-12-29T08:29:53;5.25;;;2.97;;
75526;SDS011;64107;49.248;7.006;2022-12-29T08:32:19;4.82;;;3.60;;
75526;SDS011;64107;49.248;7.006;2022-12-29T08:34:45;5.60;;;3.88;;
75526;SDS011;64107;49.248;7.006;2022-12-29T08:37:11;4.18;;;3.03;;
75526;SDS011;64107;49.248;7.006;2022-12-29T08:39:37;3.95;;;2.58;;
75526;SDS011;64107;49.248;7.006;2022-12-29T08:42:03;3.60;;;2.63;;
75526;SDS011;64107;49.248;7.006;2022-12-29T08:44:29;5.15;;;2.20;;
75526;SDS011;64107;49.248;7.006;2022-12-29T08:46:55;7.18;;;2.45;;
75526;SDS011;64107;49.248;7.006;2022-12-29T08:49:21;4.85;;;3.10;;
75526;SDS011;64107;49.248;7.006;2022-12-29T08:51:47;4.63;;;2.03;;
75526;SDS011;64107;49.248;7.006;2022-12-29T08:54:13;4.35;;;2.55;;
75526;SDS011;64107;49.248;7.006;2022-12-29T08:56:40;3.80;;;3.05;;
75526;SDS011;64107;49.248;7.006;2022-12-29T08:59:06;3.70;;;3.00;;
75526;SDS011;64107;49.248;7.006;2022-12-29T09:01:32;3.42;;;2.40;;
75526;SDS011;64107;49.248;7.006;2022-12-29T09:04:01;3.35;;;2.13;;
75526;SDS011;64107;49.248;7.006;2022-12-29T09:06:27;3.35;;;2.63;;
75526;SDS011;64107;49.248;7.006;2022-12-29T09:08:53;2.97;;;2.22;;
75526;SDS011;64107;49.248;7.006;2022-12-29T09:11:21;4.22;;;2.30;;
75526;SDS011;64107;49.248;7.006;2022-12-29T09:13:48;3.60;;;2.85;;
75526;SDS011;64107;49.248;7.006;2022-12-29T09:16:16;6.15;;;2.90;;
75526;SDS011;64107;49.248;7.006;2022-12-29T09:18:42;3.17;;;2.42;;
75526;SDS011;64107;49.248;7.006;2022-12-29T09:21:09;2.75;;;2.33;;
75526;SDS011;64107;49.248;7.006;2022-12-29T09:23:36;2.88;;;2.40;;
75526;SDS011;64107;49.248;7.006;2022-12-29T09:26:02;3.67;;;3.03;;
75526;SDS011;64107;49.248;7.006;2022-12-29T09:28:28;4.53;;;2.58;;
75526;SDS011;64107;49.248;7.006;2022-12-29T09:30:55;5.10;;;2.78;;
75526;SDS011;64107;49.248;7.006;2022-12-29T09:33:21;4.95;;;2.90;;
75526;SDS011;64107;49.248;7.006;2022-12-29T09:35:54;3.53;;;2.58;;
75526;SDS011;64107;49.248;7.006;2022-12-29T09:38:22;3.78;;;2.35;;
75526;SDS011;64107;49.248;7.006;2022-12-29T09:40:50;7.50;;;3.88;;
75526;SDS011;64107;49.248;7.006;2022-12-29T09:46:14;5.30;;;2.97;;
75526;SDS011;64107;49.248;7.006;2022-12-29T09:48:55;3.95;;;2.10;;
75526;SDS011;64107;49.248;7.006;2022-12-29T09:51:24;2.38;;;1.85;;
75526;SDS011;64107;49.248;7.006;2022-12-29T09:54:02;2.38;;;1.60;;
75526;SDS011;64107;49.248;7.006;2022-12-29T09:56:59;3.83;;;1.80;;
75526;SDS011;64107;49.248;7.006;2022-12-29T09:59:27;5.28;;;2.08;;
75526;SDS011;64107;49.248;7.006;2022-12-29T10:02:16;5.80;;;1.92;;
75526;SDS011;64107;49.248;7.006;2022-12-29T10:04:49;2.00;;;1.48;;
75526;SDS011;64107;49.248;7.006;2022-12-29T10:09:57;1.75;;;1.38;;
75526;SDS011;64107;49.248;7.006;2022-12-29T10:12:50;2.83;;;1.10;;
75526;SDS011;64107;49.248;7.006;2022-12-29T10:15:31;1.88;;;0.98;;
75526;SDS011;64107;49.248;7.006;2022-12-29T10:18:53;0.65;;;0.65;;
75526;SDS011;64107;49.248;7.006;2022-12-29T10:24:02;3.05;;;1.40;;
75526;SDS011;64107;49.248;7.006;2022-12-29T10:26:33;2.40;;;1.60;;
75526;SDS011;64107;49.248;7.006;2022-12-29T10:29:14;1.13;;;1.02;;
75526;SDS011;64107;49.248;7.006;2022-12-29T10:31:44;0.73;;;0.70;;
75526;SDS011;64107;49.248;7.006;2022-12-29T10:34:25;3.22;;;1.77;;
75526;SDS011;64107;49.248;7.006;2022-12-29T10:36:54;4.93;;;2.00;;
75526;SDS011;64107;49.248;7.006;2022-12-29T10:39:29;2.65;;;1.42;;
75526;SDS011;64107;49.248;7.006;2022-12-29T10:44:49;5.05;;;1.83;;
75526;SDS011;64107;49.248;7.006;2022-12-29T10:47:16;1.55;;;1.15;;
75526;SDS011;64107;49.248;7.006;2022-12-29T10:49:45;4.57;;;1.55;;
75526;SDS011;64107;49.248;7.006;2022-12-29T10:52:14;4.32;;;1.92;;
75526;SDS011;64107;49.248;7.006;2022-12-29T10:54:44;1.98;;;1.05;;
75526;SDS011;64107;49.248;7.006;2022-12-29T10:57:15;3.33;;;1.23;;
75526;SDS011;64107;49.248;7.006;2022-12-29T10:59:52;1.00;;;0.90;;
75526;SDS011;64107;49.248;7.006;2022-12-29T11:05:10;3.47;;;1.38;;
75526;SDS011;64107;49.248;7.006;2022-12-29T11:07:54;4.80;;;1.30;;
75526;SDS011;64107;49.248;7.006;2022-12-29T11:12:59;2.47;;;1.15;;
75526;SDS011;64107;49.248;7.006;2022-12-29T11:15:27;1.73;;;1.17;;
75526;SDS011;64107;49.248;7.006;2022-12-29T11:18:03;2.88;;;1.08;;
75526;SDS011;64107;49.248;7.006;2022-12-29T11:22:59;2.22;;;0.70;;
75526;SDS011;64107;49.248;7.006;2022-12-29T11:25:26;2.95;;;0.98;;
75526;SDS011;64107;49.248;7.006;2022-12-29T11:28:03;1.52;;;0.80;;
75526;SDS011;64107;49.248;7.006;2022-12-29T11:30:42;4.32;;;0.73;;
75526;SDS011;64107;49.248;7.006;2022-12-29T11:33:08;2.28;;;1.30;;
75526;SDS011;64107;49.248;7.006;2022-12-29T11:35:35;4.05;;;1.25;;
75526;SDS011;64107;49.248;7.006;2022-12-29T11:38:30;3.03;;;1.23;;
75526;SDS011;64107;49.248;7.006;2022-12-29T11:41:02;3.65;;;1.02;;
75526;SDS011;64107;49.248;7.006;2022-12-29T11:43:31;1.23;;;0.95;;
75526;SDS011;64107;49.248;7.006;2022-12-29T11:45:59;1.08;;;0.65;;
75526;SDS011;64107;49.248;7.006;2022-12-29T11:48:29;2.65;;;1.23;;
75526;SDS011;64107;49.248;7.006;2022-12-29T11:50:57;4.38;;;0.93;;
75526;SDS011;64107;49.248;7.006;2022-12-29T11:53:26;3.13;;;1.10;;
75526;SDS011;64107;49.248;7.006;2022-12-29T11:55:57;2.80;;;1.27;;
75526;SDS011;64107;49.248;7.006;2022-12-29T11:58:28;1.92;;;0.85;;
75526;SDS011;64107;49.248;7.006;2022-12-29T12:00:57;2.00;;;0.68;;
75526;SDS011;64107;49.248;7.006;2022-12-29T12:03:27;1.85;;;0.47;;
75526;SDS011;64107;49.248;7.006;2022-12-29T12:06:00;2.03;;;0.80;;
75526;SDS011;64107;49.248;7.006;2022-12-29T12:16:24;1.15;;;0.60;;
75526;SDS011;64107;49.248;7.006;2022-12-29T12:19:04;2.58;;;0.80;;
75526;SDS011;64107;49.248;7.006;2022-12-29T12:21:56;1.25;;;0.93;;
75526;SDS011;64107;49.248;7.006;2022-12-29T12:24:41;1.85;;;0.80;;
75526;SDS011;64107;49.248;7.006;2022-12-29T12:27:28;0.30;;;0.30;;
75526;SDS011;64107;49.248;7.006;2022-12-29T12:30:14;2.97;;;0.88;;
75526;SDS011;64107;49.248;7.006;2022-12-29T12:35:38;1.65;;;0.50;;
75526;SDS011;64107;49.248;7.006;2022-12-29T12:44:13;2.17;;;0.70;;
75526;SDS011;64107;49.248;7.006;2022-12-29T12:47:51;0.57;;;0.38;;
75526;SDS011;64107;49.248;7.006;2022-12-29T12:49:54;1.25;;;0.32;;
75526;SDS011;64107;49.248;7.006;2022-12-29T12:53:11;2.22;;;0.60;;
75526;SDS011;64107;49.248;7.006;2022-12-29T13:03:45;0.47;;;0.47;;
75526;SDS011;64107;49.248;7.006;2022-12-29T13:06:47;2.97;;;0.88;;
75526;SDS011;64107;49.248;7.006;2022-12-29T13:17:36;1.67;;;0.70;;
75526;SDS011;64107;49.248;7.006;2022-12-29T13:20:27;3.53;;;0.85;;
75526;SDS011;64107;49.248;7.006;2022-12-29T13:31:27;2.42;;;0.68;;
75526;SDS011;64107;49.248;7.006;2022-12-29T13:36:45;3.05;;;0.73;;
75526;SDS011;64107;49.248;7.006;2022-12-29T13:39:19;1.70;;;0.40;;
75526;SDS011;64107;49.248;7.006;2022-12-29T13:44:16;1.00;;;0.30;;
75526;SDS011;64107;49.248;7.006;2022-12-29T13:46:47;4.07;;;0.60;;
75526;SDS011;64107;49.248;7.006;2022-12-29T13:49:21;0.50;;;0.50;;
75526;SDS011;64107;49.248;7.006;2022-12-29T13:51:52;4.43;;;0.55;;
75526;SDS011;64107;49.248;7.006;2022-12-29T13:54:23;2.00;;;0.75;;
75526;SDS011;64107;49.248;7.006;2022-12-29T13:56:56;2.30;;;0.68;;
75526;SDS011;64107;49.248;7.006;2022-12-29T13:59:50;3.40;;;0.70;;
75526;SDS011;64107;49.248;7.006;2022-12-29T14:07:47;2.70;;;0.80;;
75526;SDS011;64107;49.248;7.006;2022-12-29T14:10:37;1.08;;;0.57;;
75526;SDS011;64107;49.248;7.006;2022-12-29T14:13:11;2.15;;;0.65;;
75526;SDS011;64107;49.248;7.006;2022-12-29T14:15:43;2.67;;;0.88;;
75526;SDS011;64107;49.248;7.006;2022-12-29T14:18:18;1.60;;;0.95;;
75526;SDS011;64107;49.248;7.006;2022-12-29T14:20:50;4.43;;;1.30;;
75526;SDS011;64107;49.248;7.006;2022-12-29T14:25:56;2.88;;;1.00;;
75526;SDS011;64107;49.248;7.006;2022-12-29T14:28:27;2.22;;;0.57;;
75526;SDS011;64107;49.248;7.006;2022-12-29T14:31:01;2.17;;;0.60;;
75526;SDS011;64107;49.248;7.006;2022-12-29T14:33:29;0.40;;;0.40;;
75526;SDS011;64107;49.248;7.006;2022-12-29T14:35:57;2.53;;;0.43;;
75526;SDS011;64107;49.248;7.006;2022-12-29T14:38:44;1.75;;;0.70;;
75526;SDS011;64107;49.248;7.006;2022-12-29T14:41:18;5.43;;;0.93;;
75526;SDS011;64107;49.248;7.006;2022-12-29T14:43:53;3.25;;;1.00;;
75526;SDS011;64107;49.248;7.006;2022-12-29T14:46:21;3.50;;;0.60;;
75526;SDS011;64107;49.248;7.006;2022-12-29T14:48:47;4.53;;;0.93;;
75526;SDS011;64107;49.248;7.006;2022-12-29T14:51:18;3.70;;;0.63;;
75526;SDS011;64107;49.248;7.006;2022-12-29T14:56:14;2.33;;;0.50;;
75526;SDS011;64107;49.248;7.006;2022-12-29T14:58:49;3.05;;;0.85;;
75526;SDS011;64107;49.248;7.006;2022-12-29T15:01:19;2.05;;;0.40;;
75526;SDS011;64107;49.248;7.006;2022-12-29T15:03:49;3.65;;;0.80;;
75526;SDS011;64107;49.248;7.006;2022-12-29T15:06:17;5.63;;;0.80;;
75526;SDS011;64107;49.248;7.006;2022-12-29T15:14:23;7.38;;;0.82;;
75526;SDS011;64107;49.248;7.006;2022-12-29T15:17:01;3.17;;;1.00;;
75526;SDS011;64107;49.248;7.006;2022-12-29T15:19:35;2.35;;;0.70;;
75526;SDS011;64107;49.248;7.006;2022-12-29T15:22:01;4.82;;;1.30;;
75526;SDS011;64107;49.248;7.006;2022-12-29T15:24:27;3.13;;;0.70;;
75526;SDS011;64107;49.248;7.006;2022-12-29T15:26:54;9.88;;;1.30;;
75526;SDS011;64107;49.248;7.006;2022-12-29T15:29:35;4.05;;;0.88;;
75526;SDS011;64107;49.248;7.006;2022-12-29T15:34:43;5.30;;;1.02;;
75526;SDS011;64107;49.248;7.006;2022-12-29T15:37:15;1.67;;;0.70;;
75526;SDS011;64107;49.248;7.006;2022-12-29T15:39:43;5.40;;;0.75;;
75526;SDS011;64107;49.248;7.006;2022-12-29T15:42:23;3.78;;;1.17;;
75526;SDS011;64107;49.248;7.006;2022-12-29T15:45:11;0.70;;;0.70;;
75526;SDS011;64107;49.248;7.006;2022-12-29T15:47:38;5.97;;;1.08;;
75526;SDS011;64107;49.248;7.006;2022-12-29T15:50:19;2.85;;;0.70;;
75526;SDS011;64107;49.248;7.006;2022-12-29T15:52:50;0.68;;;0.65;;
75526;SDS011;64107;49.248;7.006;2022-12-29T15:55:35;5.05;;;0.77;;
75526;SDS011;64107;49.248;7.006;2022-12-29T15:58:04;2.92;;;0.90;;
75526;SDS011;64107;49.248;7.006;2022-12-29T16:00:40;1.48;;;0.80;;
75526;SDS011;64107;49.248;7.006;2022-12-29T16:03:13;3.97;;;1.15;;
75526;SDS011;64107;49.248;7.006;2022-12-29T16:05:41;4.07;;;0.82;;
75526;SDS011;64107;49.248;7.006;2022-12-29T16:08:54;2.45;;;0.95;;
75526;SDS011;64107;49.248;7.006;2022-12-29T16:10:58;1.20;;;0.80;;
75526;SDS011;64107;49.248;7.006;2022-12-29T16:13:31;0.90;;;0.60;;
75526;SDS011;64107;49.248;7.006;2022-12-29T16:16:07;2.88;;;0.88;;
75526;SDS011;64107;49.248;7.006;2022-12-29T16:18:38;5.18;;;0.73;;
75526;SDS011;64107;49.248;7.006;2022-12-29T16:21:05;2.00;;;0.73;;
75526;SDS011;64107;49.248;7.006;2022-12-29T16:23:46;3.47;;;1.15;;
75526;SDS011;64107;49.248;7.006;2022-12-29T16:26:20;4.68;;;1.13;;
75526;SDS011;64107;49.248;7.006;2022-12-29T16:28:48;5.28;;;1.20;;
75526;SDS011;64107;49.248;7.006;2022-12-29T16:33:51;2.13;;;0.90;;
75526;SDS011;64107;49.248;7.006;2022-12-29T16:36:25;4.47;;;1.05;;
75526;SDS011;64107;49.248;7.006;2022-12-29T16:39:11;2.33;;;0.98;;
75526;SDS011;64107;49.248;7.006;2022-12-29T16:41:51;2.92;;;0.82;;
75526;SDS011;64107;49.248;7.006;2022-12-29T16:44:18;1.77;;;1.10;;
75526;SDS011;64107;49.248;7.006;2022-12-29T16:46:56;2.97;;;1.27;;
75526;SDS011;64107;49.248;7.006;2022-12-29T16:49:35;1.35;;;1.02;;
75526;SDS011;64107;49.248;7.006;2022-12-29T16:52:11;2.42;;;0.80;;
75526;SDS011;64107;49.248;7.006;2022-12-29T16:54:38;4.50;;;1.10;;
75526;SDS011;64107;49.248;7.006;2022-12-29T16:57:05;3.20;;;1.08;;
75526;SDS011;64107;49.248;7.006;2022-12-29T16:59:39;4.85;;;1.13;;
75526;SDS011;64107;49.248;7.006;2022-12-29T17:02:10;2.15;;;0.73;;
75526;SDS011;64107;49.248;7.006;2022-12-29T17:04:39;4.68;;;1.02;;
75526;SDS011;64107;49.248;7.006;2022-12-29T17:07:15;4.80;;;1.10;;